sensor_id;sensor_type;location;lat;lon;timestamp;P1;P2;P0
42002;PMS7003;27693;50.506;30.832;2023-04-01T00:00:37;54.40;42.00;25.80
42002;PMS7003;27693;50.506;30.832;2023-04-01T00:01:40;52.20;38.60;27.50
42002;PMS7003;27693;50.506;30.832;2023-04-01T00:02:42;50.70;40.80;26.00
42002;PMS7003;27693;50.506;30.832;2023-04-01T00:03:45;54.60;41.70;26.00
42002;PMS7003;27693;50.506;30.832;2023-04-01T00:04:48;52.70;39.80;25.70
42002;PMS7003;27693;50.506;30.832;2023-04-01T00:05:51;46.00;33.50;23.60
42002;PMS7003;27693;50.506;30.832;2023-04-01T00:06:54;48.64;38.27;26.45
42002;PMS7003;27693;50.506;30.832;2023-04-01T00:07:57;54.10;42.70;27.50
42002;PMS7003;27693;50.506;30.832;2023-04-01T00:09:00;50.20;39.00;25.40
42002;PMS7003;27693;50.506;30.832;2023-04-01T00:10:03;45.60;36.80;23.80
42002;PMS7003;27693;50.506;30.832;2023-04-01T00:11:06;52.20;40.00;25.40
42002;PMS7003;27693;50.506;30.832;2023-04-01T00:12:09;40.20;34.60;25.10
42002;PMS7003;27693;50.506;30.832;2023-04-01T00:13:12;48.73;39.55;26.09
42002;PMS7003;27693;50.506;30.832;2023-04-01T00:14:15;52.36;39.00;26.00
42002;PMS7003;27693;50.506;30.832;2023-04-01T00:15:17;51.50;39.60;27.30
42002;PMS7003;27693;50.506;30.832;2023-04-01T00:16:20;51.00;38.20;26.30
42002;PMS7003;27693;50.506;30.832;2023-04-01T00:17:24;47.80;38.10;24.90
42002;PMS7003;27693;50.506;30.832;2023-04-01T00:18:26;50.50;38.90;24.10
42002;PMS7003;27693;50.506;30.832;2023-04-01T00:19:28;54.60;39.10;25.10
42002;PMS7003;27693;50.506;30.832;2023-04-01T00:20:31;53.50;41.10;27.20
42002;PMS7003;27693;50.506;30.832;2023-04-01T00:21:34;36.40;33.70;21.30
42002;PMS7003;27693;50.506;30.832;2023-04-01T00:22:38;49.30;38.60;24.10
42002;PMS7003;27693;50.506;30.832;2023-04-01T00:23:40;50.70;39.00;25.30
42002;PMS7003;27693;50.506;30.832;2023-04-01T00:24:43;48.50;37.20;23.70
42002;PMS7003;27693;50.506;30.832;2023-04-01T00:25:46;53.40;41.20;25.30
42002;PMS7003;27693;50.506;30.832;2023-04-01T00:26:51;37.80;34.80;22.80
42002;PMS7003;27693;50.506;30.832;2023-04-01T00:27:53;45.80;37.20;24.60
42002;PMS7003;27693;50.506;30.832;2023-04-01T00:28:56;51.20;39.60;25.00
42002;PMS7003;27693;50.506;30.832;2023-04-01T00:30:01;50.70;38.10;25.90
42002;PMS7003;27693;50.506;30.832;2023-04-01T00:31:05;47.90;35.90;23.50
42002;PMS7003;27693;50.506;30.832;2023-04-01T00:32:08;49.90;39.80;25.20
42002;PMS7003;27693;50.506;30.832;2023-04-01T00:33:12;46.60;35.60;22.90
42002;PMS7003;27693;50.506;30.832;2023-04-01T00:34:14;50.00;39.80;24.60
42002;PMS7003;27693;50.506;30.832;2023-04-01T00:35:17;48.10;38.00;24.20
42002;PMS7003;27693;50.506;30.832;2023-04-01T00:36:21;48.40;38.70;25.30
42002;PMS7003;27693;50.506;30.832;2023-04-01T00:37:25;50.10;37.40;22.80
42002;PMS7003;27693;50.506;30.832;2023-04-01T00:38:29;44.50;35.70;22.50
42002;PMS7003;27693;50.506;30.832;2023-04-01T00:39:31;48.00;37.50;24.40
42002;PMS7003;27693;50.506;30.832;2023-04-01T00:42:13;45.00;37.40;24.10
42002;PMS7003;27693;50.506;30.832;2023-04-01T00:43:17;44.40;34.10;21.50
42002;PMS7003;27693;50.506;30.832;2023-04-01T00:44:30;50.30;37.60;24.70
42002;PMS7003;27693;50.506;30.832;2023-04-01T00:46:39;48.20;37.70;24.40
42002;PMS7003;27693;50.506;30.832;2023-04-01T00:47:42;46.10;35.70;23.60
42002;PMS7003;27693;50.506;30.832;2023-04-01T00:48:51;51.20;37.70;24.40
42002;PMS7003;27693;50.506;30.832;2023-04-01T00:49:56;48.80;37.50;23.30
42002;PMS7003;27693;50.506;30.832;2023-04-01T00:51:02;45.50;36.50;23.20
42002;PMS7003;27693;50.506;30.832;2023-04-01T00:52:08;37.70;32.10;21.60
42002;PMS7003;27693;50.506;30.832;2023-04-01T00:53:14;46.30;36.00;23.40
42002;PMS7003;27693;50.506;30.832;2023-04-01T00:54:19;38.00;29.20;17.80
42002;PMS7003;27693;50.506;30.832;2023-04-01T00:55:25;44.50;33.60;22.20
42002;PMS7003;27693;50.506;30.832;2023-04-01T00:56:33;40.80;35.80;23.00
42002;PMS7003;27693;50.506;30.832;2023-04-01T00:57:42;39.30;32.30;19.50
42002;PMS7003;27693;50.506;30.832;2023-04-01T00:58:48;42.50;34.10;22.90
42002;PMS7003;27693;50.506;30.832;2023-04-01T00:59:54;49.70;36.10;23.70
42002;PMS7003;27693;50.506;30.832;2023-04-01T01:00:58;46.20;35.40;23.20
42002;PMS7003;27693;50.506;30.832;2023-04-01T01:02:03;38.40;33.00;19.50
42002;PMS7003;27693;50.506;30.832;2023-04-01T01:03:08;37.70;31.50;20.10
42002;PMS7003;27693;50.506;30.832;2023-04-01T01:05:13;37.00;32.80;21.30
42002;PMS7003;27693;50.506;30.832;2023-04-01T01:05:33;45.80;34.00;22.10
42002;PMS7003;27693;50.506;30.832;2023-04-01T01:06:44;44.80;35.30;23.60
42002;PMS7003;27693;50.506;30.832;2023-04-01T01:09:19;47.70;37.50;24.70
42002;PMS7003;27693;50.506;30.832;2023-04-01T01:10:37;45.00;35.45;23.00
42002;PMS7003;27693;50.506;30.832;2023-04-01T01:15:57;39.20;33.70;23.20
42002;PMS7003;27693;50.506;30.832;2023-04-01T01:18:35;41.30;32.80;21.10
42002;PMS7003;27693;50.506;30.832;2023-04-01T01:19:51;36.20;28.80;18.70
42002;PMS7003;27693;50.506;30.832;2023-04-01T01:31:11;42.50;34.00;21.60
42002;PMS7003;27693;50.506;30.832;2023-04-01T01:36:26;43.60;34.50;21.30
42002;PMS7003;27693;50.506;30.832;2023-04-01T01:37:31;46.70;36.10;23.70
42002;PMS7003;27693;50.506;30.832;2023-04-01T01:38:35;50.10;40.30;27.30
42002;PMS7003;27693;50.506;30.832;2023-04-01T01:39:40;49.50;38.20;22.20
42002;PMS7003;27693;50.506;30.832;2023-04-01T01:40:47;46.20;36.00;21.40
42002;PMS7003;27693;50.506;30.832;2023-04-01T01:41:55;51.00;39.20;24.50
42002;PMS7003;27693;50.506;30.832;2023-04-01T01:43:03;47.10;37.80;22.90
42002;PMS7003;27693;50.506;30.832;2023-04-01T01:44:06;47.70;37.10;23.30
42002;PMS7003;27693;50.506;30.832;2023-04-01T01:45:11;46.00;35.50;20.90
42002;PMS7003;27693;50.506;30.832;2023-04-01T01:46:17;49.80;34.80;23.30
42002;PMS7003;27693;50.506;30.832;2023-04-01T01:47:22;51.60;39.40;25.10
42002;PMS7003;27693;50.506;30.832;2023-04-01T01:48:26;52.80;38.10;24.70
42002;PMS7003;27693;50.506;30.832;2023-04-01T01:49:32;51.10;39.80;24.80
42002;PMS7003;27693;50.506;30.832;2023-04-01T01:50:37;47.10;36.30;24.20
42002;PMS7003;27693;50.506;30.832;2023-04-01T01:51:44;50.10;38.50;23.80
42002;PMS7003;27693;50.506;30.832;2023-04-01T01:52:48;52.60;38.50;25.50
42002;PMS7003;27693;50.506;30.832;2023-04-01T01:53:51;48.00;38.50;25.00
42002;PMS7003;27693;50.506;30.832;2023-04-01T01:54:55;51.80;39.10;25.90
42002;PMS7003;27693;50.506;30.832;2023-04-01T01:56:01;51.00;37.80;24.80
42002;PMS7003;27693;50.506;30.832;2023-04-01T01:57:06;42.90;34.50;21.30
42002;PMS7003;27693;50.506;30.832;2023-04-01T01:59:27;47.30;34.90;22.20
42002;PMS7003;27693;50.506;30.832;2023-04-01T02:00:32;43.10;34.40;22.40
42002;PMS7003;27693;50.506;30.832;2023-04-01T02:01:37;41.60;35.30;22.40
42002;PMS7003;27693;50.506;30.832;2023-04-01T02:02:45;41.90;35.20;22.50
42002;PMS7003;27693;50.506;30.832;2023-04-01T02:03:49;40.20;32.90;22.50
42002;PMS7003;27693;50.506;30.832;2023-04-01T02:04:54;37.10;30.90;21.40
42002;PMS7003;27693;50.506;30.832;2023-04-01T02:05:58;36.10;28.90;21.00
42002;PMS7003;27693;50.506;30.832;2023-04-01T02:07:03;37.80;30.60;21.30
42002;PMS7003;27693;50.506;30.832;2023-04-01T02:08:13;37.30;28.50;19.30
42002;PMS7003;27693;50.506;30.832;2023-04-01T02:09:28;36.30;26.60;20.20
42002;PMS7003;27693;50.506;30.832;2023-04-01T02:10:34;38.00;30.60;19.80
42002;PMS7003;27693;50.506;30.832;2023-04-01T02:12:46;37.20;33.10;22.40
42002;PMS7003;27693;50.506;30.832;2023-04-01T02:13:52;36.30;31.00;20.40
42002;PMS7003;27693;50.506;30.832;2023-04-01T02:15:05;36.60;31.60;21.00
42002;PMS7003;27693;50.506;30.832;2023-04-01T02:16:14;31.60;29.50;20.70
42002;PMS7003;27693;50.506;30.832;2023-04-01T02:17:20;40.80;31.60;21.60
42002;PMS7003;27693;50.506;30.832;2023-04-01T02:18:26;41.40;34.70;23.40
42002;PMS7003;27693;50.506;30.832;2023-04-01T02:19:32;32.20;26.90;21.00
42002;PMS7003;27693;50.506;30.832;2023-04-01T02:20:37;45.00;33.90;22.80
42002;PMS7003;27693;50.506;30.832;2023-04-01T02:21:43;35.91;27.73;18.55
42002;PMS7003;27693;50.506;30.832;2023-04-01T02:22:48;40.80;33.20;23.00
42002;PMS7003;27693;50.506;30.832;2023-04-01T02:24:00;36.40;31.20;21.00
42002;PMS7003;27693;50.506;30.832;2023-04-01T02:25:07;40.00;31.70;20.90
42002;PMS7003;27693;50.506;30.832;2023-04-01T02:26:12;40.20;33.70;21.60
42002;PMS7003;27693;50.506;30.832;2023-04-01T02:27:18;43.20;33.70;21.00
42002;PMS7003;27693;50.506;30.832;2023-04-01T02:28:22;29.50;25.00;15.80
42002;PMS7003;27693;50.506;30.832;2023-04-01T02:29:26;38.10;34.00;23.50
42002;PMS7003;27693;50.506;30.832;2023-04-01T02:30:29;33.64;31.09;22.27
42002;PMS7003;27693;50.506;30.832;2023-04-01T02:31:35;42.50;35.50;23.60
42002;PMS7003;27693;50.506;30.832;2023-04-01T02:32:38;39.91;33.27;21.91
42002;PMS7003;27693;50.506;30.832;2023-04-01T02:33:42;39.30;32.90;21.40
42002;PMS7003;27693;50.506;30.832;2023-04-01T02:34:45;32.90;27.90;20.70
42002;PMS7003;27693;50.506;30.832;2023-04-01T02:35:50;38.30;30.10;20.00
42002;PMS7003;27693;50.506;30.832;2023-04-01T02:36:53;44.40;34.10;22.40
42002;PMS7003;27693;50.506;30.832;2023-04-01T02:37:57;43.20;33.00;21.50
42002;PMS7003;27693;50.506;30.832;2023-04-01T02:39:00;35.70;25.70;14.90
42002;PMS7003;27693;50.506;30.832;2023-04-01T02:40:05;39.50;33.80;22.90
42002;PMS7003;27693;50.506;30.832;2023-04-01T02:41:09;38.40;32.70;22.60
42002;PMS7003;27693;50.506;30.832;2023-04-01T02:42:12;37.10;31.50;21.80
42002;PMS7003;27693;50.506;30.832;2023-04-01T02:43:15;36.70;33.20;22.80
42002;PMS7003;27693;50.506;30.832;2023-04-01T02:44:18;35.60;31.50;23.30
42002;PMS7003;27693;50.506;30.832;2023-04-01T02:45:21;44.00;32.00;21.20
42002;PMS7003;27693;50.506;30.832;2023-04-01T02:46:23;38.40;33.10;22.80
42002;PMS7003;27693;50.506;30.832;2023-04-01T02:47:26;38.10;32.00;20.60
42002;PMS7003;27693;50.506;30.832;2023-04-01T02:48:29;34.90;30.70;22.70
42002;PMS7003;27693;50.506;30.832;2023-04-01T02:49:31;38.45;32.73;22.18
42002;PMS7003;27693;50.506;30.832;2023-04-01T02:50:35;42.90;33.40;22.00
42002;PMS7003;27693;50.506;30.832;2023-04-01T02:51:38;38.10;30.30;20.70
42002;PMS7003;27693;50.506;30.832;2023-04-01T02:52:41;28.36;26.64;17.64
42002;PMS7003;27693;50.506;30.832;2023-04-01T02:53:43;38.10;33.10;21.60
42002;PMS7003;27693;50.506;30.832;2023-04-01T02:54:46;42.80;34.10;21.80
42002;PMS7003;27693;50.506;30.832;2023-04-01T02:55:48;39.90;33.60;23.00
42002;PMS7003;27693;50.506;30.832;2023-04-01T02:56:52;40.40;33.00;22.60
42002;PMS7003;27693;50.506;30.832;2023-04-01T02:57:55;37.70;31.70;22.00
42002;PMS7003;27693;50.506;30.832;2023-04-01T02:58:57;40.60;33.60;22.10
42002;PMS7003;27693;50.506;30.832;2023-04-01T03:00:00;42.10;32.40;22.70
42002;PMS7003;27693;50.506;30.832;2023-04-01T03:01:02;35.30;30.40;20.30
42002;PMS7003;27693;50.506;30.832;2023-04-01T03:02:05;42.90;34.20;22.40
42002;PMS7003;27693;50.506;30.832;2023-04-01T03:03:08;44.10;34.40;23.00
42002;PMS7003;27693;50.506;30.832;2023-04-01T03:04:11;41.50;34.20;21.80
42002;PMS7003;27693;50.506;30.832;2023-04-01T03:05:13;35.90;31.90;22.20
42002;PMS7003;27693;50.506;30.832;2023-04-01T03:06:16;27.30;26.40;19.60
42002;PMS7003;27693;50.506;30.832;2023-04-01T03:07:19;43.70;33.80;21.70
42002;PMS7003;27693;50.506;30.832;2023-04-01T03:08:23;38.80;34.40;23.20
42002;PMS7003;27693;50.506;30.832;2023-04-01T03:09:26;46.40;35.70;22.40
42002;PMS7003;27693;50.506;30.832;2023-04-01T03:10:29;32.70;28.70;20.90
42002;PMS7003;27693;50.506;30.832;2023-04-01T03:11:32;41.40;33.80;22.20
42002;PMS7003;27693;50.506;30.832;2023-04-01T03:12:35;41.91;34.45;22.36
42002;PMS7003;27693;50.506;30.832;2023-04-01T03:13:37;29.90;23.30;15.60
42002;PMS7003;27693;50.506;30.832;2023-04-01T03:14:40;37.00;31.90;22.90
42002;PMS7003;27693;50.506;30.832;2023-04-01T03:15:42;37.10;31.00;21.20
42002;PMS7003;27693;50.506;30.832;2023-04-01T03:16:44;45.80;34.80;23.00
42002;PMS7003;27693;50.506;30.832;2023-04-01T03:17:47;42.20;34.60;22.70
42002;PMS7003;27693;50.506;30.832;2023-04-01T03:18:50;44.73;35.55;22.64
42002;PMS7003;27693;50.506;30.832;2023-04-01T03:19:54;41.60;34.30;23.00
42002;PMS7003;27693;50.506;30.832;2023-04-01T03:20:56;40.64;35.45;24.73
42002;PMS7003;27693;50.506;30.832;2023-04-01T03:21:59;47.10;38.30;24.80
42002;PMS7003;27693;50.506;30.832;2023-04-01T03:23:01;48.80;38.70;24.70
42002;PMS7003;27693;50.506;30.832;2023-04-01T03:24:04;36.70;30.80;21.50
42002;PMS7003;27693;50.506;30.832;2023-04-01T03:25:08;45.80;35.30;23.10
42002;PMS7003;27693;50.506;30.832;2023-04-01T03:26:12;41.10;34.70;22.80
42002;PMS7003;27693;50.506;30.832;2023-04-01T03:27:15;43.00;34.36;23.91
42002;PMS7003;27693;50.506;30.832;2023-04-01T03:28:18;45.90;36.10;23.40
42002;PMS7003;27693;50.506;30.832;2023-04-01T03:29:20;41.00;34.90;22.90
42002;PMS7003;27693;50.506;30.832;2023-04-01T03:30:22;42.80;35.30;23.80
42002;PMS7003;27693;50.506;30.832;2023-04-01T03:31:25;37.80;32.90;22.20
42002;PMS7003;27693;50.506;30.832;2023-04-01T03:32:29;40.40;34.00;23.10
42002;PMS7003;27693;50.506;30.832;2023-04-01T03:33:32;41.00;31.27;19.45
42002;PMS7003;27693;50.506;30.832;2023-04-01T03:34:35;41.90;33.90;23.00
42002;PMS7003;27693;50.506;30.832;2023-04-01T03:35:37;43.20;36.10;23.80
42002;PMS7003;27693;50.506;30.832;2023-04-01T03:36:40;41.90;34.30;23.00
42002;PMS7003;27693;50.506;30.832;2023-04-01T03:37:43;36.90;31.40;20.40
42002;PMS7003;27693;50.506;30.832;2023-04-01T03:38:45;42.30;35.00;23.10
42002;PMS7003;27693;50.506;30.832;2023-04-01T03:39:49;39.70;33.10;23.00
42002;PMS7003;27693;50.506;30.832;2023-04-01T03:40:51;42.80;32.20;21.20
42002;PMS7003;27693;50.506;30.832;2023-04-01T03:41:54;42.40;33.60;23.00
42002;PMS7003;27693;50.506;30.832;2023-04-01T03:42:56;46.50;34.10;23.10
42002;PMS7003;27693;50.506;30.832;2023-04-01T03:43:59;37.30;32.60;23.00
42002;PMS7003;27693;50.506;30.832;2023-04-01T03:45:02;35.30;31.60;22.10
42002;PMS7003;27693;50.506;30.832;2023-04-01T03:46:06;44.40;33.80;22.30
42002;PMS7003;27693;50.506;30.832;2023-04-01T03:47:09;39.90;32.90;22.90
42002;PMS7003;27693;50.506;30.832;2023-04-01T03:48:11;35.90;28.60;19.40
42002;PMS7003;27693;50.506;30.832;2023-04-01T03:49:13;41.10;33.40;22.20
42002;PMS7003;27693;50.506;30.832;2023-04-01T03:50:16;43.00;35.30;23.80
42002;PMS7003;27693;50.506;30.832;2023-04-01T03:51:19;38.64;32.55;22.18
42002;PMS7003;27693;50.506;30.832;2023-04-01T03:52:22;36.64;31.91;20.55
42002;PMS7003;27693;50.506;30.832;2023-04-01T03:53:24;38.30;32.40;22.00
42002;PMS7003;27693;50.506;30.832;2023-04-01T03:54:29;37.70;31.60;22.30
42002;PMS7003;27693;50.506;30.832;2023-04-01T03:55:31;34.20;30.20;21.20
42002;PMS7003;27693;50.506;30.832;2023-04-01T03:56:34;33.50;27.30;17.50
42002;PMS7003;27693;50.506;30.832;2023-04-01T03:57:38;37.90;31.70;21.50
42002;PMS7003;27693;50.506;30.832;2023-04-01T03:58:42;36.30;31.60;20.70
42002;PMS7003;27693;50.506;30.832;2023-04-01T03:59:45;30.20;25.90;18.60
42002;PMS7003;27693;50.506;30.832;2023-04-01T04:00:47;36.50;30.00;19.90
42002;PMS7003;27693;50.506;30.832;2023-04-01T04:01:49;36.20;31.40;21.80
42002;PMS7003;27693;50.506;30.832;2023-04-01T04:02:52;38.30;33.20;21.20
42002;PMS7003;27693;50.506;30.832;2023-04-01T04:03:56;41.10;33.40;21.90
42002;PMS7003;27693;50.506;30.832;2023-04-01T04:04:59;37.80;31.90;20.80
42002;PMS7003;27693;50.506;30.832;2023-04-01T04:06:02;34.40;30.90;20.60
42002;PMS7003;27693;50.506;30.832;2023-04-01T04:07:06;32.90;24.50;12.90
42002;PMS7003;27693;50.506;30.832;2023-04-01T04:08:11;33.60;29.30;21.40
42002;PMS7003;27693;50.506;30.832;2023-04-01T04:09:13;36.30;29.40;21.00
42002;PMS7003;27693;50.506;30.832;2023-04-01T04:10:17;38.50;31.60;21.80
42002;PMS7003;27693;50.506;30.832;2023-04-01T04:11:20;37.10;31.40;20.90
42002;PMS7003;27693;50.506;30.832;2023-04-01T04:12:25;34.60;27.80;17.20
42002;PMS7003;27693;50.506;30.832;2023-04-01T04:13:28;31.60;31.20;21.00
42002;PMS7003;27693;50.506;30.832;2023-04-01T04:14:34;39.60;31.20;21.70
42002;PMS7003;27693;50.506;30.832;2023-04-01T04:15:38;36.90;31.00;21.90
42002;PMS7003;27693;50.506;30.832;2023-04-01T04:16:41;37.30;32.20;22.30
42002;PMS7003;27693;50.506;30.832;2023-04-01T04:17:45;36.80;29.40;21.20
42002;PMS7003;27693;50.506;30.832;2023-04-01T04:18:48;31.90;29.80;20.60
42002;PMS7003;27693;50.506;30.832;2023-04-01T04:19:52;33.00;29.50;22.70
42002;PMS7003;27693;50.506;30.832;2023-04-01T04:20:56;35.80;31.30;21.00
42002;PMS7003;27693;50.506;30.832;2023-04-01T04:22:00;36.20;29.50;19.40
42002;PMS7003;27693;50.506;30.832;2023-04-01T04:23:03;33.00;29.50;20.80
42002;PMS7003;27693;50.506;30.832;2023-04-01T04:24:06;33.00;29.91;20.91
42002;PMS7003;27693;50.506;30.832;2023-04-01T04:25:11;41.50;31.70;20.70
42002;PMS7003;27693;50.506;30.832;2023-04-01T04:26:14;32.60;28.20;19.60
42002;PMS7003;27693;50.506;30.832;2023-04-01T04:27:17;32.36;28.64;20.73
42002;PMS7003;27693;50.506;30.832;2023-04-01T04:28:22;34.80;28.00;19.30
42002;PMS7003;27693;50.506;30.832;2023-04-01T04:29:27;33.10;27.40;17.10
42002;PMS7003;27693;50.506;30.832;2023-04-01T04:30:29;39.40;29.70;20.60
42002;PMS7003;27693;50.506;30.832;2023-04-01T04:31:32;28.40;24.00;14.90
42002;PMS7003;27693;50.506;30.832;2023-04-01T04:32:35;34.60;28.70;20.70
42002;PMS7003;27693;50.506;30.832;2023-04-01T04:33:38;35.50;28.70;18.00
42002;PMS7003;27693;50.506;30.832;2023-04-01T04:34:42;35.60;30.70;21.00
42002;PMS7003;27693;50.506;30.832;2023-04-01T04:35:44;34.60;29.40;19.90
42002;PMS7003;27693;50.506;30.832;2023-04-01T04:36:48;37.50;32.00;20.40
42002;PMS7003;27693;50.506;30.832;2023-04-01T04:37:50;38.55;32.64;22.00
42002;PMS7003;27693;50.506;30.832;2023-04-01T04:38:53;34.64;27.82;17.64
42002;PMS7003;27693;50.506;30.832;2023-04-01T04:39:57;35.90;32.40;20.70
42002;PMS7003;27693;50.506;30.832;2023-04-01T04:40:59;38.00;32.90;22.30
42002;PMS7003;27693;50.506;30.832;2023-04-01T04:42:01;37.30;30.70;20.60
42002;PMS7003;27693;50.506;30.832;2023-04-01T04:43:04;40.20;32.30;22.30
42002;PMS7003;27693;50.506;30.832;2023-04-01T04:44:07;36.30;31.00;21.30
42002;PMS7003;27693;50.506;30.832;2023-04-01T04:45:10;33.91;28.27;19.82
42002;PMS7003;27693;50.506;30.832;2023-04-01T04:46:16;35.10;30.20;20.50
42002;PMS7003;27693;50.506;30.832;2023-04-01T04:47:19;36.40;30.20;20.00
42002;PMS7003;27693;50.506;30.832;2023-04-01T04:48:22;32.60;27.10;19.50
42002;PMS7003;27693;50.506;30.832;2023-04-01T04:49:24;34.40;30.10;20.40
42002;PMS7003;27693;50.506;30.832;2023-04-01T04:50:27;34.90;30.10;20.00
42002;PMS7003;27693;50.506;30.832;2023-04-01T04:51:29;30.20;24.60;17.90
42002;PMS7003;27693;50.506;30.832;2023-04-01T04:52:32;41.30;32.40;21.30
42002;PMS7003;27693;50.506;30.832;2023-04-01T04:53:35;35.36;30.18;22.36
42002;PMS7003;27693;50.506;30.832;2023-04-01T04:54:38;36.30;30.20;20.40
42002;PMS7003;27693;50.506;30.832;2023-04-01T04:55:43;39.30;34.60;22.80
42002;PMS7003;27693;50.506;30.832;2023-04-01T04:56:50;46.90;37.40;25.40
42002;PMS7003;27693;50.506;30.832;2023-04-01T04:57:55;40.90;33.10;22.70
42002;PMS7003;27693;50.506;30.832;2023-04-01T04:58:57;32.90;29.70;20.50
42002;PMS7003;27693;50.506;30.832;2023-04-01T05:00:03;29.30;25.20;17.80
42002;PMS7003;27693;50.506;30.832;2023-04-01T05:01:10;33.20;29.40;20.50
42002;PMS7003;27693;50.506;30.832;2023-04-01T05:02:14;34.90;28.30;19.60
42002;PMS7003;27693;50.506;30.832;2023-04-01T05:03:18;33.30;30.10;20.80
42002;PMS7003;27693;50.506;30.832;2023-04-01T05:04:21;34.30;29.30;20.10
42002;PMS7003;27693;50.506;30.832;2023-04-01T05:05:24;27.70;22.30;16.40
42002;PMS7003;27693;50.506;30.832;2023-04-01T05:06:26;29.70;26.80;16.60
42002;PMS7003;27693;50.506;30.832;2023-04-01T05:07:33;33.20;29.80;20.80
42002;PMS7003;27693;50.506;30.832;2023-04-01T05:08:36;30.20;25.60;16.70
42002;PMS7003;27693;50.506;30.832;2023-04-01T05:09:40;36.30;28.50;18.60
42002;PMS7003;27693;50.506;30.832;2023-04-01T05:10:42;31.20;24.60;16.50
42002;PMS7003;27693;50.506;30.832;2023-04-01T05:11:47;31.60;28.20;20.40
42002;PMS7003;27693;50.506;30.832;2023-04-01T05:12:49;34.30;28.30;20.60
42002;PMS7003;27693;50.506;30.832;2023-04-01T05:13:53;34.60;30.00;21.20
42002;PMS7003;27693;50.506;30.832;2023-04-01T05:14:55;37.00;30.44;20.89
42002;PMS7003;27693;50.506;30.832;2023-04-01T05:15:58;30.10;24.70;18.10
42002;PMS7003;27693;50.506;30.832;2023-04-01T05:17:01;36.20;29.70;20.40
42002;PMS7003;27693;50.506;30.832;2023-04-01T05:18:04;29.30;26.00;18.80
42002;PMS7003;27693;50.506;30.832;2023-04-01T05:19:06;34.40;28.00;18.90
42002;PMS7003;27693;50.506;30.832;2023-04-01T05:20:10;34.40;28.10;18.90
42002;PMS7003;27693;50.506;30.832;2023-04-01T05:21:16;33.80;27.20;18.60
42002;PMS7003;27693;50.506;30.832;2023-04-01T05:22:19;34.30;29.20;19.00
42002;PMS7003;27693;50.506;30.832;2023-04-01T05:23:22;31.90;26.30;17.10
42002;PMS7003;27693;50.506;30.832;2023-04-01T05:24:25;33.55;29.09;19.73
42002;PMS7003;27693;50.506;30.832;2023-04-01T05:25:28;30.40;26.40;17.70
42002;PMS7003;27693;50.506;30.832;2023-04-01T05:26:31;29.36;25.82;17.45
42002;PMS7003;27693;50.506;30.832;2023-04-01T05:27:34;27.00;24.30;17.40
42002;PMS7003;27693;50.506;30.832;2023-04-01T05:28:37;26.40;24.30;16.30
42002;PMS7003;27693;50.506;30.832;2023-04-01T05:29:40;27.45;24.00;16.36
42002;PMS7003;27693;50.506;30.832;2023-04-01T05:30:45;30.60;25.30;17.60
42002;PMS7003;27693;50.506;30.832;2023-04-01T05:32:01;27.50;24.80;17.20
42002;PMS7003;27693;50.506;30.832;2023-04-01T05:33:04;31.10;26.80;19.50
42002;PMS7003;27693;50.506;30.832;2023-04-01T05:34:07;21.64;19.55;14.09
42002;PMS7003;27693;50.506;30.832;2023-04-01T05:35:11;27.10;24.90;17.70
42002;PMS7003;27693;50.506;30.832;2023-04-01T05:36:14;25.40;20.70;14.60
42002;PMS7003;27693;50.506;30.832;2023-04-01T05:37:18;24.70;23.00;16.10
42002;PMS7003;27693;50.506;30.832;2023-04-01T05:38:21;28.82;25.73;18.64
42002;PMS7003;27693;50.506;30.832;2023-04-01T05:39:24;25.90;23.20;17.50
42002;PMS7003;27693;50.506;30.832;2023-04-01T05:40:28;19.60;12.90;3.40
42002;PMS7003;27693;50.506;30.832;2023-04-01T05:41:34;28.50;26.70;19.20
42002;PMS7003;27693;50.506;30.832;2023-04-01T05:42:40;26.10;22.70;16.20
42002;PMS7003;27693;50.506;30.832;2023-04-01T05:43:42;33.80;27.30;18.90
42002;PMS7003;27693;50.506;30.832;2023-04-01T05:44:55;29.70;26.60;18.90
42002;PMS7003;27693;50.506;30.832;2023-04-01T05:46:16;26.60;22.80;16.40
42002;PMS7003;27693;50.506;30.832;2023-04-01T05:47:21;33.10;26.80;19.50
42002;PMS7003;27693;50.506;30.832;2023-04-01T05:48:25;28.00;26.70;18.70
42002;PMS7003;27693;50.506;30.832;2023-04-01T05:49:28;29.20;23.10;17.20
42002;PMS7003;27693;50.506;30.832;2023-04-01T05:50:31;28.60;23.90;17.10
42002;PMS7003;27693;50.506;30.832;2023-04-01T05:51:35;23.60;20.90;13.90
42002;PMS7003;27693;50.506;30.832;2023-04-01T05:52:37;29.90;26.40;18.70
42002;PMS7003;27693;50.506;30.832;2023-04-01T05:53:41;27.30;22.90;16.40
42002;PMS7003;27693;50.506;30.832;2023-04-01T05:54:44;27.55;25.09;18.09
42002;PMS7003;27693;50.506;30.832;2023-04-01T05:55:46;31.70;26.10;18.30
42002;PMS7003;27693;50.506;30.832;2023-04-01T05:56:49;29.80;26.30;17.20
42002;PMS7003;27693;50.506;30.832;2023-04-01T05:57:51;28.10;25.60;18.00
42002;PMS7003;27693;50.506;30.832;2023-04-01T05:58:54;32.70;28.30;19.80
42002;PMS7003;27693;50.506;30.832;2023-04-01T05:59:57;26.10;24.30;16.60
42002;PMS7003;27693;50.506;30.832;2023-04-01T06:01:00;29.20;25.30;17.50
42002;PMS7003;27693;50.506;30.832;2023-04-01T06:02:09;29.90;25.90;18.00
42002;PMS7003;27693;50.506;30.832;2023-04-01T06:03:12;29.40;24.70;18.40
42002;PMS7003;27693;50.506;30.832;2023-04-01T06:04:16;27.00;25.50;18.80
42002;PMS7003;27693;50.506;30.832;2023-04-01T06:05:21;27.00;23.80;17.90
42002;PMS7003;27693;50.506;30.832;2023-04-01T06:06:27;28.30;26.30;18.10
42002;PMS7003;27693;50.506;30.832;2023-04-01T06:07:33;29.20;25.60;19.00
42002;PMS7003;27693;50.506;30.832;2023-04-01T06:08:36;28.60;25.10;17.10
42002;PMS7003;27693;50.506;30.832;2023-04-01T06:09:38;26.70;23.70;16.20
42002;PMS7003;27693;50.506;30.832;2023-04-01T06:10:44;29.60;23.80;16.80
42002;PMS7003;27693;50.506;30.832;2023-04-01T06:17:49;26.40;23.60;15.40
42002;PMS7003;27693;50.506;30.832;2023-04-01T06:25:33;27.40;26.50;17.70
42002;PMS7003;27693;50.506;30.832;2023-04-01T06:28:14;29.10;26.20;19.00
42002;PMS7003;27693;50.506;30.832;2023-04-01T06:30:46;28.50;24.70;18.70
42002;PMS7003;27693;50.506;30.832;2023-04-01T06:32:04;22.40;15.50;11.50
42002;PMS7003;27693;50.506;30.832;2023-04-01T06:36:08;28.40;24.40;18.00
42002;PMS7003;27693;50.506;30.832;2023-04-01T06:38:34;29.60;25.40;17.70
42002;PMS7003;27693;50.506;30.832;2023-04-01T06:49:24;23.20;20.60;15.30
42002;PMS7003;27693;50.506;30.832;2023-04-01T06:52:36;26.70;21.20;15.70
42002;PMS7003;27693;50.506;30.832;2023-04-01T06:55:32;22.60;19.60;15.00